Terminal Aerodrome Forecast
Issued by NWS Burlington, VT

Home | Current Version | Previous Version | Text Only | Print | Product List | Glossary On
Versions: 1 2 3 4 5 6 7 8 9 10 11 12 13 14 15 16 17 18 19 20
000
FTUS41 KBTV 281135
TAFBTV
TAF
KBTV 281135Z 2812/2912 19007KT P6SM BKN030
     FM281500 23006KT P6SM SCT030
     FM281800 28008KT P6SM VCSH BKN050
     FM290000 20005KT P6SM SKC=

USA.gov is the U.S. government's official web portal to all federal, state and local government web resources and services.